Huvudsida
METAR-TAF:

METAR-TAF

Flygplatser :

Skaraborgs flygflottilj

Såtenäs, Sverige

latitud: 58-26N, longitud: 012-42E, höjd: 54 m

Aktuellt väderrapport

Denna rapport gjordes för 25 minuter sedan, klockan 12:50 UTC
Vind 14 kt från syd
Temperatur 16°C
Fuktighet 94%
Tryck 1003 hPa
Sikt 10 km eller mer

METAR: ESIB 171250Z AUTO 17014KT 9999 BKN016/// OVC020/// 16/15 Q1003

Tid: 15:15 (13:15 UTC)

Väderprognos

Denna rapport gjordes för 25 timmar och 45 minuter sedan, klockan 11:30 UTC
Prognos gäller från 16 kl. 12 UTC till 16 kl. 15 UTC
Vind 8 kt från syd/sydväst
Sikt 10 km eller mer
Brutna moln på en höjd av 1600 ft
Temporärt
från 16 kl. 12 UTC till 16 kl. 15 UTC
Vind 8 kt från syd/sydväst i byarna ända upp till 18 kt
Sikt: 8000 m
Brutna moln på en höjd av 1200 ft
Spridda moln på en höjd av 1600 ft, Cumulonimbus.
lätta regnskurar

TAF: ESIB 161130Z 1612/1615 21008KT 9999 BKN016 TEMPO 1612/1615 21008G18KT 8000 -SHRA BKN012 SCT016CB RMK MIL

Aktuella väderrapporter och prognoser från 4000 flygplatser (METAR- och TAF-rapporter).

De tillgängliga stationerna syns som gula och röda prickar på kartan.

För musen över prickarna för att se namnen på stationerna.

Klicka sedan för att få väderrapporter och prognoser.

För att ändra kartan: Klicka på de gröna knapparna med ett svart kors på för att zooma in; den gröna knappen med ett streck på för att zooma ut; eller på de gröna pilarna för angränsande kartor.


METAR-TAF: